Terminal Aerodrome Forecast
Issued by NWS

Current Version | Previous Version | Graphics & Text | Print | Product List | Glossary On
Versions: 1 2 3 4 5 6 7 8 9 10 11 12 13 14 15 16 17 18 19 20 21
000
FTUS41 KPBZ 271459 AAB
TAFHLG
TAF AMD
KHLG 271459Z 2715/2812 30004KT P6SM SCT025 BKN060
     FM272000 32005KT P6SM SCT050
     FM280900 00000KT 2SM BR SKC=

USA.gov is the U.S. government's official web portal to all federal, state and local government web resources and services.